Sedgefield, North Carolina
Current Conditions -  °F | °C
As of 1:54 PM on Friday 24 Oct 2014 (Local Time) from KGSO Reporting Station
Broken Clouds Broken Clouds  
Wind Chill: 65°   Ceiling: 18000
Heat Index: 65°   Visibility: 10mi
Dew Point: 39°   Wind: 6mph
Humidity: 39%   Direction: 10°N
Pressure: 30.01"   Gusts: NA
Location:  36.011°N, 79.8751°W
Report Text: KGSO 241754Z 01005KT 10SM BKN180 BKN250 18/04 A3001 RMK AO2 SLP157 T01830039 10200 20072 58020
Loading
Personal Weather Stations






























Interactive Weather Map
Tropical Storm Tracking
New forecast layout! Learn more

10-Day Weather Forecast

Advertisements
Track Severe Weather on mobile